sensor_id;sensor_type;location;lat;lon;timestamp;P1;durP1;ratioP1;P2;durP2;ratioP2
79243;SDS011;68672;42.676;23.356;2023-05-07T00:01:15;7.10;;;5.68;;
79243;SDS011;68672;42.676;23.356;2023-05-07T00:03:41;7.57;;;6.35;;
79243;SDS011;68672;42.676;23.356;2023-05-07T00:06:06;10.98;;;7.18;;
79243;SDS011;68672;42.676;23.356;2023-05-07T00:08:32;10.88;;;6.28;;
79243;SDS011;68672;42.676;23.356;2023-05-07T00:10:57;8.88;;;5.93;;
79243;SDS011;68672;42.676;23.356;2023-05-07T00:13:23;9.18;;;6.85;;
79243;SDS011;68672;42.676;23.356;2023-05-07T00:15:48;8.15;;;6.75;;
79243;SDS011;68672;42.676;23.356;2023-05-07T00:18:13;7.28;;;6.18;;
79243;SDS011;68672;42.676;23.356;2023-05-07T00:20:39;9.48;;;6.85;;
79243;SDS011;68672;42.676;23.356;2023-05-07T00:23:04;7.63;;;6.55;;
79243;SDS011;68672;42.676;23.356;2023-05-07T00:25:30;8.75;;;6.80;;
79243;SDS011;68672;42.676;23.356;2023-05-07T00:27:55;7.60;;;6.80;;
79243;SDS011;68672;42.676;23.356;2023-05-07T00:30:22;10.98;;;7.63;;
79243;SDS011;68672;42.676;23.356;2023-05-07T00:32:51;9.10;;;6.85;;
79243;SDS011;68672;42.676;23.356;2023-05-07T00:35:16;9.60;;;6.18;;
79243;SDS011;68672;42.676;23.356;2023-05-07T00:37:41;8.52;;;6.80;;
79243;SDS011;68672;42.676;23.356;2023-05-07T00:40:13;7.72;;;5.45;;
79243;SDS011;68672;42.676;23.356;2023-05-07T00:42:39;8.32;;;6.63;;
79243;SDS011;68672;42.676;23.356;2023-05-07T00:45:05;9.10;;;6.25;;
79243;SDS011;68672;42.676;23.356;2023-05-07T00:47:32;8.93;;;6.30;;
79243;SDS011;68672;42.676;23.356;2023-05-07T00:49:58;7.03;;;5.93;;
79243;SDS011;68672;42.676;23.356;2023-05-07T00:52:23;8.32;;;6.57;;
79243;SDS011;68672;42.676;23.356;2023-05-07T00:54:51;10.13;;;7.63;;
79243;SDS011;68672;42.676;23.356;2023-05-07T00:57:17;9.32;;;6.40;;
79243;SDS011;68672;42.676;23.356;2023-05-07T00:59:42;8.55;;;7.22;;
79243;SDS011;68672;42.676;23.356;2023-05-07T01:02:11;9.25;;;6.05;;
79243;SDS011;68672;42.676;23.356;2023-05-07T01:04:36;9.88;;;6.53;;
79243;SDS011;68672;42.676;23.356;2023-05-07T01:07:04;9.45;;;6.38;;
79243;SDS011;68672;42.676;23.356;2023-05-07T01:09:30;8.05;;;6.05;;
79243;SDS011;68672;42.676;23.356;2023-05-07T01:11:56;11.73;;;6.50;;
79243;SDS011;68672;42.676;23.356;2023-05-07T01:14:28;9.75;;;6.78;;
79243;SDS011;68672;42.676;23.356;2023-05-07T01:16:58;6.57;;;5.18;;
79243;SDS011;68672;42.676;23.356;2023-05-07T01:19:23;11.63;;;5.82;;
79243;SDS011;68672;42.676;23.356;2023-05-07T01:21:49;7.45;;;5.38;;
79243;SDS011;68672;42.676;23.356;2023-05-07T01:24:16;7.28;;;5.50;;
79243;SDS011;68672;42.676;23.356;2023-05-07T01:26:43;7.70;;;5.32;;
79243;SDS011;68672;42.676;23.356;2023-05-07T01:29:12;7.70;;;4.53;;
79243;SDS011;68672;42.676;23.356;2023-05-07T01:31:38;6.28;;;5.10;;
79243;SDS011;68672;42.676;23.356;2023-05-07T01:34:05;6.35;;;5.28;;
79243;SDS011;68672;42.676;23.356;2023-05-07T01:36:33;9.38;;;5.80;;
79243;SDS011;68672;42.676;23.356;2023-05-07T01:39:00;5.40;;;4.40;;
79243;SDS011;68672;42.676;23.356;2023-05-07T01:41:29;7.38;;;4.75;;
79243;SDS011;68672;42.676;23.356;2023-05-07T01:43:55;5.72;;;4.43;;
79243;SDS011;68672;42.676;23.356;2023-05-07T01:46:23;7.22;;;4.80;;
79243;SDS011;68672;42.676;23.356;2023-05-07T01:48:49;7.32;;;4.93;;
79243;SDS011;68672;42.676;23.356;2023-05-07T01:51:18;7.45;;;5.20;;
79243;SDS011;68672;42.676;23.356;2023-05-07T01:53:48;6.72;;;4.32;;
79243;SDS011;68672;42.676;23.356;2023-05-07T01:56:16;4.47;;;3.70;;
79243;SDS011;68672;42.676;23.356;2023-05-07T01:58:43;5.18;;;4.05;;
79243;SDS011;68672;42.676;23.356;2023-05-07T02:01:09;5.80;;;4.80;;
79243;SDS011;68672;42.676;23.356;2023-05-07T02:03:35;6.07;;;4.20;;
79243;SDS011;68672;42.676;23.356;2023-05-07T02:06:03;6.40;;;4.00;;
79243;SDS011;68672;42.676;23.356;2023-05-07T02:08:28;5.97;;;4.90;;
79243;SDS011;68672;42.676;23.356;2023-05-07T02:10:54;5.88;;;4.95;;
79243;SDS011;68672;42.676;23.356;2023-05-07T02:13:20;4.88;;;4.10;;
79243;SDS011;68672;42.676;23.356;2023-05-07T02:15:47;6.15;;;4.47;;
79243;SDS011;68672;42.676;23.356;2023-05-07T02:18:15;6.82;;;5.28;;
79243;SDS011;68672;42.676;23.356;2023-05-07T02:20:41;8.77;;;4.93;;
79243;SDS011;68672;42.676;23.356;2023-05-07T02:23:07;8.13;;;6.07;;
79243;SDS011;68672;42.676;23.356;2023-05-07T02:25:32;6.88;;;5.68;;
79243;SDS011;68672;42.676;23.356;2023-05-07T02:27:58;8.45;;;5.32;;
79243;SDS011;68672;42.676;23.356;2023-05-07T02:30:24;6.95;;;5.43;;
79243;SDS011;68672;42.676;23.356;2023-05-07T02:32:50;8.10;;;5.60;;
79243;SDS011;68672;42.676;23.356;2023-05-07T02:35:15;7.72;;;5.20;;
79243;SDS011;68672;42.676;23.356;2023-05-07T02:37:41;7.82;;;5.07;;
79243;SDS011;68672;42.676;23.356;2023-05-07T02:40:06;5.78;;;5.15;;
79243;SDS011;68672;42.676;23.356;2023-05-07T02:42:32;5.95;;;4.57;;
79243;SDS011;68672;42.676;23.356;2023-05-07T02:44:58;6.68;;;4.68;;
79243;SDS011;68672;42.676;23.356;2023-05-07T02:47:24;6.97;;;5.70;;
79243;SDS011;68672;42.676;23.356;2023-05-07T02:49:51;7.88;;;5.57;;
79243;SDS011;68672;42.676;23.356;2023-05-07T02:52:18;7.22;;;6.20;;
79243;SDS011;68672;42.676;23.356;2023-05-07T02:54:46;7.72;;;6.03;;
79243;SDS011;68672;42.676;23.356;2023-05-07T02:57:34;6.28;;;5.43;;
79243;SDS011;68672;42.676;23.356;2023-05-07T03:00:06;7.22;;;5.70;;
79243;SDS011;68672;42.676;23.356;2023-05-07T03:02:35;7.97;;;5.95;;
79243;SDS011;68672;42.676;23.356;2023-05-07T03:05:01;7.57;;;5.55;;
79243;SDS011;68672;42.676;23.356;2023-05-07T03:07:26;7.85;;;5.72;;
79243;SDS011;68672;42.676;23.356;2023-05-07T03:09:52;7.50;;;5.78;;
79243;SDS011;68672;42.676;23.356;2023-05-07T03:12:18;9.38;;;5.95;;
79243;SDS011;68672;42.676;23.356;2023-05-07T03:14:44;8.65;;;6.45;;
79243;SDS011;68672;42.676;23.356;2023-05-07T03:17:09;7.30;;;5.75;;
79243;SDS011;68672;42.676;23.356;2023-05-07T03:19:34;7.35;;;5.68;;
79243;SDS011;68672;42.676;23.356;2023-05-07T03:22:00;7.05;;;5.70;;
79243;SDS011;68672;42.676;23.356;2023-05-07T03:24:25;8.93;;;6.65;;
79243;SDS011;68672;42.676;23.356;2023-05-07T03:26:51;9.88;;;6.70;;
79243;SDS011;68672;42.676;23.356;2023-05-07T03:29:16;9.93;;;6.72;;
79243;SDS011;68672;42.676;23.356;2023-05-07T03:31:42;9.13;;;6.68;;
79243;SDS011;68672;42.676;23.356;2023-05-07T03:34:10;7.85;;;6.38;;
79243;SDS011;68672;42.676;23.356;2023-05-07T03:36:35;11.13;;;6.85;;
79243;SDS011;68672;42.676;23.356;2023-05-07T03:39:01;9.27;;;5.97;;
79243;SDS011;68672;42.676;23.356;2023-05-07T03:41:26;7.35;;;5.85;;
79243;SDS011;68672;42.676;23.356;2023-05-07T03:43:52;6.82;;;4.70;;
79243;SDS011;68672;42.676;23.356;2023-05-07T03:46:20;7.65;;;5.95;;
79243;SDS011;68672;42.676;23.356;2023-05-07T03:48:46;8.00;;;5.90;;
79243;SDS011;68672;42.676;23.356;2023-05-07T03:51:11;6.90;;;6.10;;
79243;SDS011;68672;42.676;23.356;2023-05-07T03:53:36;11.90;;;6.82;;
79243;SDS011;68672;42.676;23.356;2023-05-07T03:56:02;10.38;;;6.70;;
79243;SDS011;68672;42.676;23.356;2023-05-07T03:58:30;8.23;;;6.63;;
79243;SDS011;68672;42.676;23.356;2023-05-07T04:00:55;8.82;;;6.95;;
79243;SDS011;68672;42.676;23.356;2023-05-07T04:03:21;9.15;;;7.00;;
79243;SDS011;68672;42.676;23.356;2023-05-07T04:05:46;17.98;;;13.05;;
79243;SDS011;68672;42.676;23.356;2023-05-07T04:08:12;22.65;;;13.52;;
79243;SDS011;68672;42.676;23.356;2023-05-07T04:10:39;9.32;;;6.55;;
79243;SDS011;68672;42.676;23.356;2023-05-07T04:13:05;14.15;;;9.63;;
79243;SDS011;68672;42.676;23.356;2023-05-07T04:15:33;12.65;;;8.35;;
79243;SDS011;68672;42.676;23.356;2023-05-07T04:17:58;11.18;;;7.72;;
79243;SDS011;68672;42.676;23.356;2023-05-07T04:20:24;8.13;;;6.18;;
79243;SDS011;68672;42.676;23.356;2023-05-07T04:22:52;8.18;;;5.80;;
79243;SDS011;68672;42.676;23.356;2023-05-07T04:25:17;10.15;;;7.13;;
79243;SDS011;68672;42.676;23.356;2023-05-07T04:27:43;7.22;;;5.72;;
79243;SDS011;68672;42.676;23.356;2023-05-07T04:30:09;9.38;;;6.65;;
79243;SDS011;68672;42.676;23.356;2023-05-07T04:32:34;11.60;;;7.63;;
79243;SDS011;68672;42.676;23.356;2023-05-07T04:35:04;10.32;;;6.65;;
79243;SDS011;68672;42.676;23.356;2023-05-07T04:37:31;11.68;;;6.80;;
79243;SDS011;68672;42.676;23.356;2023-05-07T04:39:57;7.43;;;6.30;;
79243;SDS011;68672;42.676;23.356;2023-05-07T04:42:28;8.32;;;5.38;;
79243;SDS011;68672;42.676;23.356;2023-05-07T04:44:54;7.55;;;6.63;;
79243;SDS011;68672;42.676;23.356;2023-05-07T04:47:20;10.85;;;6.28;;
79243;SDS011;68672;42.676;23.356;2023-05-07T04:49:48;10.95;;;6.43;;
79243;SDS011;68672;42.676;23.356;2023-05-07T04:52:13;9.10;;;7.35;;
79243;SDS011;68672;42.676;23.356;2023-05-07T04:54:39;9.90;;;6.78;;
79243;SDS011;68672;42.676;23.356;2023-05-07T04:57:04;8.25;;;6.43;;
79243;SDS011;68672;42.676;23.356;2023-05-07T04:59:29;10.70;;;6.32;;
79243;SDS011;68672;42.676;23.356;2023-05-07T05:01:55;12.73;;;6.95;;
79243;SDS011;68672;42.676;23.356;2023-05-07T05:04:29;7.05;;;5.43;;
79243;SDS011;68672;42.676;23.356;2023-05-07T05:06:55;8.07;;;6.05;;
79243;SDS011;68672;42.676;23.356;2023-05-07T05:09:20;8.23;;;6.93;;
79243;SDS011;68672;42.676;23.356;2023-05-07T05:11:45;8.38;;;6.55;;
79243;SDS011;68672;42.676;23.356;2023-05-07T05:14:11;10.00;;;7.13;;
79243;SDS011;68672;42.676;23.356;2023-05-07T05:16:36;8.45;;;6.30;;
79243;SDS011;68672;42.676;23.356;2023-05-07T05:19:02;7.95;;;6.05;;
79243;SDS011;68672;42.676;23.356;2023-05-07T05:21:32;10.75;;;7.75;;
79243;SDS011;68672;42.676;23.356;2023-05-07T05:23:58;9.40;;;7.20;;
79243;SDS011;68672;42.676;23.356;2023-05-07T05:26:32;12.05;;;8.35;;
79243;SDS011;68672;42.676;23.356;2023-05-07T05:28:57;11.95;;;6.32;;
79243;SDS011;68672;42.676;23.356;2023-05-07T05:31:23;12.77;;;7.75;;
79243;SDS011;68672;42.676;23.356;2023-05-07T05:33:48;8.70;;;6.93;;
79243;SDS011;68672;42.676;23.356;2023-05-07T05:36:14;10.57;;;6.70;;
79243;SDS011;68672;42.676;23.356;2023-05-07T05:38:39;9.13;;;6.63;;
79243;SDS011;68672;42.676;23.356;2023-05-07T05:41:05;10.05;;;6.93;;
79243;SDS011;68672;42.676;23.356;2023-05-07T05:43:31;9.90;;;6.82;;
79243;SDS011;68672;42.676;23.356;2023-05-07T05:45:56;9.90;;;6.68;;
79243;SDS011;68672;42.676;23.356;2023-05-07T05:48:22;11.63;;;6.97;;
79243;SDS011;68672;42.676;23.356;2023-05-07T05:50:48;10.45;;;6.45;;
79243;SDS011;68672;42.676;23.356;2023-05-07T05:53:13;11.05;;;7.38;;
79243;SDS011;68672;42.676;23.356;2023-05-07T05:55:39;8.35;;;7.20;;
79243;SDS011;68672;42.676;23.356;2023-05-07T05:58:04;8.82;;;6.65;;
79243;SDS011;68672;42.676;23.356;2023-05-07T06:00:30;10.85;;;7.88;;
79243;SDS011;68672;42.676;23.356;2023-05-07T06:02:55;7.00;;;6.28;;
79243;SDS011;68672;42.676;23.356;2023-05-07T06:05:21;10.20;;;7.35;;
79243;SDS011;68672;42.676;23.356;2023-05-07T06:07:49;12.57;;;6.13;;
79243;SDS011;68672;42.676;23.356;2023-05-07T06:10:14;8.77;;;6.85;;
79243;SDS011;68672;42.676;23.356;2023-05-07T06:12:40;11.70;;;7.93;;
79243;SDS011;68672;42.676;23.356;2023-05-07T06:15:05;8.70;;;6.68;;
79243;SDS011;68672;42.676;23.356;2023-05-07T06:17:31;11.00;;;6.50;;
79243;SDS011;68672;42.676;23.356;2023-05-07T06:19:57;7.60;;;6.78;;
79243;SDS011;68672;42.676;23.356;2023-05-07T06:22:22;8.90;;;6.20;;
79243;SDS011;68672;42.676;23.356;2023-05-07T06:24:50;9.48;;;6.85;;
79243;SDS011;68672;42.676;23.356;2023-05-07T06:27:18;9.68;;;6.78;;
79243;SDS011;68672;42.676;23.356;2023-05-07T06:29:43;10.85;;;6.72;;
79243;SDS011;68672;42.676;23.356;2023-05-07T06:32:09;8.38;;;6.03;;
79243;SDS011;68672;42.676;23.356;2023-05-07T06:34:36;7.55;;;5.57;;
79243;SDS011;68672;42.676;23.356;2023-05-07T06:37:02;10.32;;;6.70;;
79243;SDS011;68672;42.676;23.356;2023-05-07T06:39:27;8.43;;;5.85;;
79243;SDS011;68672;42.676;23.356;2023-05-07T06:41:53;10.40;;;6.22;;
79243;SDS011;68672;42.676;23.356;2023-05-07T06:44:18;8.70;;;6.28;;
79243;SDS011;68672;42.676;23.356;2023-05-07T06:46:44;8.68;;;6.50;;
79243;SDS011;68672;42.676;23.356;2023-05-07T06:49:10;12.32;;;7.45;;
79243;SDS011;68672;42.676;23.356;2023-05-07T06:51:36;11.35;;;6.38;;
79243;SDS011;68672;42.676;23.356;2023-05-07T06:54:01;10.30;;;7.20;;
79243;SDS011;68672;42.676;23.356;2023-05-07T06:56:26;9.95;;;6.30;;
79243;SDS011;68672;42.676;23.356;2023-05-07T06:59:01;9.98;;;6.20;;
79243;SDS011;68672;42.676;23.356;2023-05-07T07:01:27;8.10;;;5.78;;
79243;SDS011;68672;42.676;23.356;2023-05-07T07:03:53;7.80;;;5.50;;
79243;SDS011;68672;42.676;23.356;2023-05-07T07:06:18;11.05;;;6.25;;
79243;SDS011;68672;42.676;23.356;2023-05-07T07:08:43;8.60;;;6.72;;
79243;SDS011;68672;42.676;23.356;2023-05-07T07:11:09;9.93;;;6.38;;
79243;SDS011;68672;42.676;23.356;2023-05-07T07:13:35;8.68;;;6.75;;
79243;SDS011;68672;42.676;23.356;2023-05-07T07:16:01;11.73;;;6.93;;
79243;SDS011;68672;42.676;23.356;2023-05-07T07:18:26;7.18;;;6.03;;
79243;SDS011;68672;42.676;23.356;2023-05-07T07:20:51;8.60;;;6.60;;
79243;SDS011;68672;42.676;23.356;2023-05-07T07:23:17;9.80;;;6.82;;
79243;SDS011;68672;42.676;23.356;2023-05-07T07:25:42;9.00;;;6.45;;
79243;SDS011;68672;42.676;23.356;2023-05-07T07:28:08;11.45;;;7.05;;
79243;SDS011;68672;42.676;23.356;2023-05-07T07:30:36;9.57;;;7.03;;
79243;SDS011;68672;42.676;23.356;2023-05-07T07:33:02;7.80;;;6.40;;
79243;SDS011;68672;42.676;23.356;2023-05-07T07:35:34;8.98;;;6.80;;
79243;SDS011;68672;42.676;23.356;2023-05-07T07:38:00;11.25;;;7.38;;
79243;SDS011;68672;42.676;23.356;2023-05-07T07:40:26;9.13;;;6.45;;
79243;SDS011;68672;42.676;23.356;2023-05-07T07:42:52;9.68;;;7.68;;
79243;SDS011;68672;42.676;23.356;2023-05-07T07:45:18;9.05;;;6.47;;
79243;SDS011;68672;42.676;23.356;2023-05-07T07:47:44;9.32;;;6.32;;
79243;SDS011;68672;42.676;23.356;2023-05-07T07:50:09;11.40;;;7.18;;
79243;SDS011;68672;42.676;23.356;2023-05-07T07:52:35;8.57;;;7.10;;
79243;SDS011;68672;42.676;23.356;2023-05-07T07:55:01;9.05;;;6.10;;
79243;SDS011;68672;42.676;23.356;2023-05-07T07:57:26;9.90;;;7.63;;
79243;SDS011;68672;42.676;23.356;2023-05-07T07:59:52;9.02;;;7.00;;
79243;SDS011;68672;42.676;23.356;2023-05-07T08:02:20;9.80;;;7.72;;
79243;SDS011;68672;42.676;23.356;2023-05-07T08:04:45;9.07;;;6.53;;
79243;SDS011;68672;42.676;23.356;2023-05-07T08:07:11;9.60;;;7.00;;
79243;SDS011;68672;42.676;23.356;2023-05-07T08:09:37;6.95;;;5.95;;
79243;SDS011;68672;42.676;23.356;2023-05-07T08:12:03;9.18;;;7.13;;
79243;SDS011;68672;42.676;23.356;2023-05-07T08:14:30;6.90;;;5.70;;
79243;SDS011;68672;42.676;23.356;2023-05-07T08:16:55;8.18;;;6.40;;
79243;SDS011;68672;42.676;23.356;2023-05-07T08:19:20;8.82;;;6.53;;
79243;SDS011;68672;42.676;23.356;2023-05-07T08:21:46;9.70;;;7.13;;
79243;SDS011;68672;42.676;23.356;2023-05-07T08:24:15;8.85;;;6.45;;
79243;SDS011;68672;42.676;23.356;2023-05-07T08:26:41;7.18;;;5.57;;
79243;SDS011;68672;42.676;23.356;2023-05-07T08:29:07;10.48;;;6.57;;
79243;SDS011;68672;42.676;23.356;2023-05-07T08:31:32;12.50;;;6.15;;
79243;SDS011;68672;42.676;23.356;2023-05-07T08:34:00;7.25;;;6.47;;
79243;SDS011;68672;42.676;23.356;2023-05-07T08:36:29;8.13;;;6.55;;
79243;SDS011;68672;42.676;23.356;2023-05-07T08:38:55;9.80;;;6.25;;
79243;SDS011;68672;42.676;23.356;2023-05-07T08:41:20;8.60;;;6.15;;
79243;SDS011;68672;42.676;23.356;2023-05-07T08:43:49;6.88;;;5.13;;
79243;SDS011;68672;42.676;23.356;2023-05-07T08:46:19;7.18;;;5.65;;
79243;SDS011;68672;42.676;23.356;2023-05-07T08:48:52;13.30;;;7.63;;
79243;SDS011;68672;42.676;23.356;2023-05-07T08:51:19;10.65;;;6.45;;
79243;SDS011;68672;42.676;23.356;2023-05-07T08:53:46;7.78;;;5.97;;
79243;SDS011;68672;42.676;23.356;2023-05-07T08:56:13;9.55;;;6.10;;
79243;SDS011;68672;42.676;23.356;2023-05-07T08:58:45;6.18;;;5.30;;
79243;SDS011;68672;42.676;23.356;2023-05-07T09:01:14;9.57;;;5.93;;
79243;SDS011;68672;42.676;23.356;2023-05-07T09:03:44;5.85;;;4.40;;
79243;SDS011;68672;42.676;23.356;2023-05-07T09:06:11;6.10;;;4.47;;
79243;SDS011;68672;42.676;23.356;2023-05-07T09:08:36;4.88;;;4.25;;
79243;SDS011;68672;42.676;23.356;2023-05-07T09:11:02;6.28;;;4.55;;
79243;SDS011;68672;42.676;23.356;2023-05-07T09:13:28;7.25;;;4.72;;
79243;SDS011;68672;42.676;23.356;2023-05-07T09:15:54;6.82;;;4.95;;
79243;SDS011;68672;42.676;23.356;2023-05-07T09:18:19;6.07;;;5.15;;
79243;SDS011;68672;42.676;23.356;2023-05-07T09:20:50;7.10;;;4.13;;
79243;SDS011;68672;42.676;23.356;2023-05-07T09:23:16;7.30;;;4.95;;
79243;SDS011;68672;42.676;23.356;2023-05-07T09:25:41;5.82;;;5.10;;
79243;SDS011;68672;42.676;23.356;2023-05-07T09:28:07;6.35;;;4.38;;
79243;SDS011;68672;42.676;23.356;2023-05-07T09:30:34;6.45;;;4.80;;
79243;SDS011;68672;42.676;23.356;2023-05-07T09:33:03;9.35;;;7.10;;
79243;SDS011;68672;42.676;23.356;2023-05-07T09:35:29;6.05;;;4.88;;
79243;SDS011;68672;42.676;23.356;2023-05-07T09:37:58;5.60;;;4.82;;
79243;SDS011;68672;42.676;23.356;2023-05-07T09:40:30;6.18;;;4.53;;
79243;SDS011;68672;42.676;23.356;2023-05-07T09:42:56;8.00;;;4.30;;
79243;SDS011;68672;42.676;23.356;2023-05-07T09:45:33;4.80;;;4.25;;
79243;SDS011;68672;42.676;23.356;2023-05-07T09:47:58;5.63;;;4.35;;
79243;SDS011;68672;42.676;23.356;2023-05-07T09:50:28;5.75;;;4.63;;
79243;SDS011;68672;42.676;23.356;2023-05-07T09:52:57;4.85;;;4.03;;
79243;SDS011;68672;42.676;23.356;2023-05-07T09:55:23;4.70;;;4.15;;
79243;SDS011;68672;42.676;23.356;2023-05-07T09:57:52;5.47;;;4.32;;
79243;SDS011;68672;42.676;23.356;2023-05-07T10:00:18;12.90;;;8.80;;
79243;SDS011;68672;42.676;23.356;2023-05-07T10:02:46;7.20;;;5.18;;
79243;SDS011;68672;42.676;23.356;2023-05-07T10:05:20;6.20;;;4.15;;
79243;SDS011;68672;42.676;23.356;2023-05-07T10:07:47;5.00;;;3.70;;
79243;SDS011;68672;42.676;23.356;2023-05-07T10:10:16;4.13;;;3.72;;
79243;SDS011;68672;42.676;23.356;2023-05-07T10:12:42;5.15;;;3.60;;
79243;SDS011;68672;42.676;23.356;2023-05-07T10:15:11;4.32;;;3.63;;
79243;SDS011;68672;42.676;23.356;2023-05-07T10:17:39;5.95;;;3.55;;
79243;SDS011;68672;42.676;23.356;2023-05-07T10:20:06;4.22;;;3.80;;
79243;SDS011;68672;42.676;23.356;2023-05-07T10:22:37;4.32;;;3.45;;
79243;SDS011;68672;42.676;23.356;2023-05-07T10:25:16;4.28;;;3.78;;
79243;SDS011;68672;42.676;23.356;2023-05-07T10:27:44;3.65;;;3.35;;
79243;SDS011;68672;42.676;23.356;2023-05-07T10:33:31;4.65;;;3.90;;
79243;SDS011;68672;42.676;23.356;2023-05-07T10:36:00;4.22;;;3.83;;
79243;SDS011;68672;42.676;23.356;2023-05-07T10:38:27;3.97;;;3.50;;
79243;SDS011;68672;42.676;23.356;2023-05-07T10:40:53;4.65;;;3.92;;
79243;SDS011;68672;42.676;23.356;2023-05-07T10:43:19;3.95;;;3.55;;
79243;SDS011;68672;42.676;23.356;2023-05-07T10:51:31;4.28;;;3.88;;
79243;SDS011;68672;42.676;23.356;2023-05-07T10:56:35;7.20;;;3.95;;
79243;SDS011;68672;42.676;23.356;2023-05-07T11:04:24;4.68;;;4.07;;
79243;SDS011;68672;42.676;23.356;2023-05-07T11:15:10;5.07;;;3.63;;
79243;SDS011;68672;42.676;23.356;2023-05-07T11:17:53;3.55;;;2.95;;
79243;SDS011;68672;42.676;23.356;2023-05-07T11:20:20;4.90;;;3.90;;
79243;SDS011;68672;42.676;23.356;2023-05-07T11:22:46;4.20;;;3.80;;
79243;SDS011;68672;42.676;23.356;2023-05-07T11:25:17;4.55;;;3.85;;
79243;SDS011;68672;42.676;23.356;2023-05-07T11:27:44;5.65;;;3.90;;
79243;SDS011;68672;42.676;23.356;2023-05-07T11:30:10;4.63;;;3.92;;
79243;SDS011;68672;42.676;23.356;2023-05-07T11:32:43;5.72;;;4.45;;
79243;SDS011;68672;42.676;23.356;2023-05-07T11:35:11;4.95;;;4.07;;
79243;SDS011;68672;42.676;23.356;2023-05-07T11:37:37;3.92;;;3.58;;
79243;SDS011;68672;42.676;23.356;2023-05-07T11:40:06;4.30;;;3.90;;
79243;SDS011;68672;42.676;23.356;2023-05-07T11:42:34;4.78;;;4.20;;
79243;SDS011;68672;42.676;23.356;2023-05-07T11:45:02;4.20;;;3.80;;
79243;SDS011;68672;42.676;23.356;2023-05-07T11:47:31;4.00;;;3.33;;
79243;SDS011;68672;42.676;23.356;2023-05-07T11:50:02;5.28;;;3.75;;
79243;SDS011;68672;42.676;23.356;2023-05-07T11:52:28;4.88;;;4.38;;
79243;SDS011;68672;42.676;23.356;2023-05-07T11:54:55;4.18;;;3.78;;
79243;SDS011;68672;42.676;23.356;2023-05-07T11:57:22;3.92;;;3.60;;
79243;SDS011;68672;42.676;23.356;2023-05-07T11:59:58;5.57;;;4.35;;
79243;SDS011;68672;42.676;23.356;2023-05-07T12:02:24;5.30;;;4.65;;
79243;SDS011;68672;42.676;23.356;2023-05-07T12:04:53;4.95;;;4.25;;
79243;SDS011;68672;42.676;23.356;2023-05-07T12:07:20;4.13;;;3.70;;
79243;SDS011;68672;42.676;23.356;2023-05-07T12:09:45;5.10;;;4.43;;
79243;SDS011;68672;42.676;23.356;2023-05-07T12:12:12;4.75;;;4.35;;
79243;SDS011;68672;42.676;23.356;2023-05-07T12:14:41;4.63;;;3.95;;
79243;SDS011;68672;42.676;23.356;2023-05-07T12:17:08;5.95;;;3.95;;
79243;SDS011;68672;42.676;23.356;2023-05-07T12:19:38;4.10;;;3.70;;
79243;SDS011;68672;42.676;23.356;2023-05-07T12:22:05;4.38;;;3.97;;
79243;SDS011;68672;42.676;23.356;2023-05-07T12:24:48;4.78;;;3.78;;
79243;SDS011;68672;42.676;23.356;2023-05-07T12:27:18;4.97;;;3.72;;
79243;SDS011;68672;42.676;23.356;2023-05-07T12:29:44;6.00;;;4.57;;
79243;SDS011;68672;42.676;23.356;2023-05-07T12:32:13;4.13;;;3.72;;
79243;SDS011;68672;42.676;23.356;2023-05-07T12:34:42;5.63;;;3.85;;
79243;SDS011;68672;42.676;23.356;2023-05-07T12:37:08;5.43;;;3.60;;
79243;SDS011;68672;42.676;23.356;2023-05-07T12:39:38;5.28;;;3.13;;
79243;SDS011;68672;42.676;23.356;2023-05-07T12:44:32;4.63;;;3.50;;
79243;SDS011;68672;42.676;23.356;2023-05-07T12:46:58;3.72;;;3.30;;
79243;SDS011;68672;42.676;23.356;2023-05-07T12:49:26;4.07;;;3.67;;
79243;SDS011;68672;42.676;23.356;2023-05-07T12:51:51;4.05;;;3.60;;
79243;SDS011;68672;42.676;23.356;2023-05-07T12:54:28;4.28;;;3.58;;
79243;SDS011;68672;42.676;23.356;2023-05-07T12:57:07;4.75;;;3.58;;
79243;SDS011;68672;42.676;23.356;2023-05-07T12:59:35;4.00;;;3.30;;
79243;SDS011;68672;42.676;23.356;2023-05-07T13:02:02;3.50;;;3.20;;
79243;SDS011;68672;42.676;23.356;2023-05-07T13:04:28;6.65;;;3.63;;
79243;SDS011;68672;42.676;23.356;2023-05-07T13:06:53;3.53;;;3.22;;
79243;SDS011;68672;42.676;23.356;2023-05-07T13:09:18;3.55;;;3.00;;
79243;SDS011;68672;42.676;23.356;2023-05-07T13:11:53;4.90;;;3.17;;
79243;SDS011;68672;42.676;23.356;2023-05-07T13:14:18;3.80;;;3.20;;
79243;SDS011;68672;42.676;23.356;2023-05-07T13:16:45;4.47;;;3.20;;
79243;SDS011;68672;42.676;23.356;2023-05-07T13:19:11;3.30;;;3.00;;
79243;SDS011;68672;42.676;23.356;2023-05-07T13:21:37;3.80;;;3.33;;
79243;SDS011;68672;42.676;23.356;2023-05-07T13:24:02;3.65;;;2.83;;
79243;SDS011;68672;42.676;23.356;2023-05-07T13:26:29;3.17;;;2.88;;
79243;SDS011;68672;42.676;23.356;2023-05-07T13:28:56;2.90;;;2.60;;
79243;SDS011;68672;42.676;23.356;2023-05-07T13:31:21;6.32;;;3.60;;
79243;SDS011;68672;42.676;23.356;2023-05-07T13:33:47;3.65;;;2.80;;
79243;SDS011;68672;42.676;23.356;2023-05-07T13:36:12;4.03;;;3.13;;
79243;SDS011;68672;42.676;23.356;2023-05-07T13:38:38;3.78;;;3.33;;
79243;SDS011;68672;42.676;23.356;2023-05-07T13:41:05;3.95;;;3.10;;
79243;SDS011;68672;42.676;23.356;2023-05-07T13:43:30;3.70;;;3.03;;
79243;SDS011;68672;42.676;23.356;2023-05-07T13:45:56;4.18;;;3.35;;
79243;SDS011;68672;42.676;23.356;2023-05-07T13:48:25;3.75;;;3.15;;
79243;SDS011;68672;42.676;23.356;2023-05-07T13:50:50;4.65;;;3.30;;
79243;SDS011;68672;42.676;23.356;2023-05-07T13:53:19;4.13;;;2.97;;
79243;SDS011;68672;42.676;23.356;2023-05-07T13:55:48;3.08;;;2.60;;
79243;SDS011;68672;42.676;23.356;2023-05-07T13:58:13;5.97;;;3.38;;
79243;SDS011;68672;42.676;23.356;2023-05-07T14:00:38;4.03;;;3.08;;
79243;SDS011;68672;42.676;23.356;2023-05-07T14:03:04;4.15;;;3.38;;
79243;SDS011;68672;42.676;23.356;2023-05-07T14:05:30;5.32;;;3.05;;
79243;SDS011;68672;42.676;23.356;2023-05-07T14:07:58;3.55;;;3.25;;
79243;SDS011;68672;42.676;23.356;2023-05-07T14:10:24;4.53;;;3.40;;
79243;SDS011;68672;42.676;23.356;2023-05-07T14:12:50;3.70;;;2.83;;
79243;SDS011;68672;42.676;23.356;2023-05-07T14:15:15;3.83;;;3.15;;
79243;SDS011;68672;42.676;23.356;2023-05-07T14:17:41;4.20;;;2.80;;
79243;SDS011;68672;42.676;23.356;2023-05-07T14:20:07;4.38;;;3.25;;
79243;SDS011;68672;42.676;23.356;2023-05-07T14:22:33;4.18;;;3.30;;
79243;SDS011;68672;42.676;23.356;2023-05-07T14:24:59;4.93;;;2.90;;
79243;SDS011;68672;42.676;23.356;2023-05-07T14:27:24;4.00;;;3.05;;
79243;SDS011;68672;42.676;23.356;2023-05-07T14:29:50;3.55;;;3.10;;
79243;SDS011;68672;42.676;23.356;2023-05-07T14:32:18;4.25;;;3.10;;
79243;SDS011;68672;42.676;23.356;2023-05-07T14:34:44;3.45;;;2.90;;
79243;SDS011;68672;42.676;23.356;2023-05-07T14:37:10;4.00;;;3.05;;
79243;SDS011;68672;42.676;23.356;2023-05-07T14:39:36;4.38;;;3.17;;
79243;SDS011;68672;42.676;23.356;2023-05-07T14:42:05;4.05;;;3.35;;
79243;SDS011;68672;42.676;23.356;2023-05-07T14:44:32;3.78;;;3.40;;
79243;SDS011;68672;42.676;23.356;2023-05-07T14:46:58;3.70;;;3.10;;
79243;SDS011;68672;42.676;23.356;2023-05-07T14:49:27;5.10;;;3.22;;
79243;SDS011;68672;42.676;23.356;2023-05-07T14:51:52;5.22;;;3.90;;
79243;SDS011;68672;42.676;23.356;2023-05-07T14:54:18;4.45;;;3.60;;
79243;SDS011;68672;42.676;23.356;2023-05-07T14:56:44;4.47;;;3.00;;
79243;SDS011;68672;42.676;23.356;2023-05-07T14:59:12;3.17;;;2.80;;